DEASU EDDW-EDZZ

Flight info

Callsign DEASU
Flight time N/A
Altitude
Route
Aircraft RALL

Departure

Time 2026-05-06 13:55
Airport Bremen Airport (EDDW)

Arrival

Time N/A
Airport EDZZ
Time Latitude Longitude Altitude Speed Heading
2026-05-06 13:52 53.05038 8.78187 13 ft 10 kts 138°
2026-05-06 13:52 53.04956 8.78261 13 ft 16 kts 172°
2026-05-06 13:52 53.04872 8.78346 13 ft 13 kts 134°
2026-05-06 13:52 53.04851 8.78479 13 ft 14 kts 96°
2026-05-06 13:53 53.04841 8.78640 13 ft 12 kts 127°
2026-05-06 13:53 53.04787 8.78663 13 ft 0 kts 180°
2026-05-06 13:54 53.04748 8.78666 13 ft 12 kts 176°
2026-05-06 13:54 53.04685 8.78693 15 ft 8 kts 82°
2026-05-06 13:55 53.04692 8.78910 15 ft 46 kts 86°
2026-05-06 13:55 53.04697 8.79636 162 ft 70 kts 84°
2026-05-06 13:55 53.04705 8.80492 509 ft 80 kts 82°
2026-05-06 13:55 53.04602 8.81419 994 ft 85 kts 120°
2026-05-06 13:56 53.03954 8.81808 1178 ft 122 kts 178°
2026-05-06 13:56 53.03099 8.81331 1200 ft 138 kts 208°
2026-05-06 13:56 53.02444 8.80185 1233 ft 137 kts 252°
2026-05-06 13:56 53.02115 8.78680 1226 ft 144 kts 257°
2026-05-06 13:57 53.01864 8.77043 1221 ft 145 kts 261°
2026-05-06 13:57 53.01638 8.75373 1164 ft 150 kts 262°
2026-05-06 13:57 53.01372 8.73685 1169 ft 147 kts 257°
2026-05-06 13:57 53.01051 8.72079 1189 ft 146 kts 258°
2026-05-06 13:58 53.00770 8.70476 1200 ft 144 kts 257°
2026-05-06 13:58 53.00562 8.69422 1201 ft 147 kts 253°
2026-05-06 13:58 53.00267 8.67790 1200 ft 147 kts 259°
2026-05-06 13:58 52.99815 8.66275 1214 ft 151 kts 238°
2026-05-06 13:59 52.98972 8.64400 1165 ft 149 kts 233°
2026-05-06 13:59 52.98531 8.63489 1134 ft 151 kts 233°
2026-05-06 13:59 52.97832 8.62183 1120 ft 151 kts 227°
2026-05-06 13:59 52.97109 8.60928 1137 ft 149 kts 227°
2026-05-06 14:00 52.96453 8.59591 1088 ft 152 kts 239°
2026-05-06 14:00 52.95974 8.58079 1090 ft 149 kts 248°
2026-05-06 14:00 52.95616 8.56520 1170 ft 141 kts 256°
2026-05-06 14:00 52.95359 8.54971 1462 ft 141 kts 260°
2026-05-06 14:01 52.95096 8.53343 1738 ft 144 kts 253°
2026-05-06 14:01 52.94790 8.51897 2180 ft 138 kts 257°
2026-05-06 14:01 52.94553 8.50297 2457 ft 146 kts 264°
2026-05-06 14:01 52.94525 8.48546 2525 ft 157 kts 289°
2026-05-06 14:02 52.94968 8.46992 2762 ft 149 kts 313°
2026-05-06 14:02 52.95544 8.45623 3046 ft 140 kts 316°
2026-05-06 14:02 52.96141 8.44417 3430 ft 131 kts 321°
2026-05-06 14:02 52.96767 8.43217 3570 ft 139 kts 321°
2026-05-06 14:03 52.97317 8.42058 3962 ft 133 kts 314°
2026-05-06 14:03 52.97889 8.40762 4087 ft 142 kts 313°
2026-05-06 14:03 52.98257 8.39652 4860 ft 101 kts 305°
2026-05-06 14:03 52.98514 8.38578 5211 ft 103 kts 296°
2026-05-06 14:04 52.98833 8.37305 5369 ft 121 kts 299°
2026-05-06 14:04 52.99170 8.35951 5646 ft 123 kts 291°
2026-05-06 14:04 52.99124 8.34557 6038 ft 122 kts 258°
2026-05-06 14:04 52.99144 8.33259 6543 ft 98 kts 285°
2026-05-06 14:05 52.99261 8.32145 6846 ft 104 kts 285°
2026-05-06 14:05 52.99374 8.30965 7159 ft 106 kts 289°
2026-05-06 14:05 52.99591 8.29811 7571 ft 95 kts 295°
2026-05-06 14:05 52.99840 8.28887 7990 ft 79 kts 303°
2026-05-06 14:06 53.00085 8.28036 8255 ft 81 kts 309°
2026-05-06 14:06 53.00363 8.27117 8441 ft 95 kts 307°
2026-05-06 14:06 53.00729 8.26280 8757 ft 90 kts 294°
2026-05-06 14:06 53.00969 8.25176 8453 ft 117 kts 304°
2026-05-06 14:07 53.01401 8.24025 7989 ft 124 kts 314°
2026-05-06 14:07 53.02058 8.22888 6768 ft 157 kts 325°
2026-05-06 14:07 53.02954 8.21721 5736 ft 161 kts 328°
2026-05-06 14:07 53.03876 8.20636 4415 ft 168 kts 335°
2026-05-06 14:08 53.04785 8.19723 3851 ft 141 kts 336°
2026-05-06 14:08 53.05671 8.18839 2795 ft 148 kts 338°
2026-05-06 14:08 53.06531 8.18139 2116 ft 134 kts 342°
2026-05-06 14:08 53.07305 8.17527 2116 ft 122 kts 339°
2026-05-06 14:09 53.07832 8.16408 2172 ft 128 kts 313°
2026-05-06 14:09 53.08358 8.15226 2168 ft 125 kts 322°
2026-05-06 14:09 53.08976 8.14198 2121 ft 127 kts 327°
2026-05-06 14:09 53.09641 8.13302 2165 ft 123 kts 331°
2026-05-06 14:10 53.10321 8.12465 2237 ft 119 kts 333°
2026-05-06 14:10 53.11001 8.11668 2277 ft 120 kts 335°
2026-05-06 14:10 53.11692 8.10841 2260 ft 124 kts 332°
2026-05-06 14:10 53.12405 8.10023 2232 ft 124 kts 337°
2026-05-06 14:11 53.13149 8.09325 2241 ft 122 kts 340°
2026-05-06 14:11 53.13904 8.08662 2195 ft 122 kts 343°
2026-05-06 14:11 53.14679 8.08214 2146 ft 119 kts 354°
2026-05-06 14:11 53.15495 8.08063 2071 ft 118 kts
2026-05-06 14:12 53.16301 8.08008 2066 ft 115 kts
2026-05-06 14:12 53.17105 8.07968 2028 ft 115 kts
2026-05-06 14:12 53.17910 8.07871 2016 ft 117 kts 359°
2026-05-06 14:12 53.18723 8.07642 1860 ft 119 kts 353°
2026-05-06 14:13 53.19523 8.07333 1674 ft 119 kts 352°
2026-05-06 14:13 53.20289 8.06959 1573 ft 110 kts 348°
2026-05-06 14:13 53.21021 8.06514 1370 ft 113 kts 345°
2026-05-06 14:13 53.21719 8.06012 1323 ft 106 kts 343°
2026-05-06 14:14 53.22402 8.05471 1302 ft 109 kts 333°
2026-05-06 14:14 53.23006 8.04590 1202 ft 119 kts 323°
2026-05-06 14:14 53.23480 8.03515 1198 ft 115 kts 294°
2026-05-06 14:14 53.23458 8.02189 1206 ft 115 kts 256°
2026-05-06 14:15 53.23012 8.01129 1168 ft 115 kts 214°
2026-05-06 14:15 53.22338 8.00525 1060 ft 104 kts 198°
2026-05-06 14:15 53.21651 8.00413 652 ft 99 kts 152°
2026-05-06 14:15 53.21098 8.00089 170 ft 93 kts 262°
2026-05-06 14:16 53.21046 7.99136 34 ft 67 kts 265°
2026-05-06 14:16 53.21019 7.98512 31 ft 44 kts 266°
2026-05-06 14:16 53.20978 7.98115 24 ft 26 kts 240°
2026-05-06 14:16 53.20889 7.97957 27 ft 14 kts 266°
2026-05-06 14:17 53.20886 7.97923 27 ft 0 kts 210°